Track дорошенк0 варя

Time Latitude Longitude Accuracy (66% radius in meters) Altitude (meters) Speed (km/hour) Bearing (degrees) Battery (%) GPS flag
09:38:57 44.637571 39.186335 6 116 0 0 43 1 delete
09:38:46 44.637556 39.186340 5 117 0 0 43 1 delete
09:38:44 44.637545 39.186346 5 119 0 0 43 1 delete
09:38:36 44.637505 39.186341 5 117 0.5799999833107 299.89999389648 43 1 delete
09:38:26 44.637499 39.186330 5 115 0.99000000953674 313.20001220703 43 1 delete
09:38:16 44.637473 39.186363 6 111 0 0 43 1 delete
09:38:05 44.637471 39.186386 6 112 0 0 43 1 delete
09:38:02 44.637456 39.186395 5 112 1.0700000524521 303.89999389648 43 1 delete
09:37:55 44.637462 39.186413 6 110 0 0 43 1 delete
09:37:45 44.637453 39.186436 5 111 0 0 43 1 delete
09:37:30 44.637437 39.186449 6 109 0 0 43 1 delete
09:37:20 44.637438 39.186450 5 103 0 0 43 1 delete
09:37:10 44.637460 39.186455 5 102 0 0 43 1 delete
09:36:59 44.637466 39.186482 7 108 0 0 43 1 delete
09:36:48 44.637466 39.186483 5 108 0 0 43 1 delete
09:36:38 44.637466 39.186484 5 108 0 0 43 1 delete
09:36:27 44.637464 39.186473 6 108 0 0 43 1 delete
09:36:17 44.637452 39.186476 4 109 0.31000000238419 152.60000610352 43 1 delete
09:36:07 44.637482 39.186497 8 112 0 0 43 1 delete
09:35:56 44.637484 39.186502 8 111 0 0 43 1 delete
09:35:46 44.637485 39.186505 5 111 0 0 43 1 delete
09:35:40 44.637494 39.186512 5 111 0 0 43 1 delete
09:35:35 44.637518 39.186550 4 114 0 0 43 1 delete
09:35:25 44.637521 39.186576 5 115 0 0 43 1 delete
09:35:14 44.637522 39.186576 5 115 0 0 43 1 delete
09:35:04 44.637523 39.186576 5 115 0 0 43 1 delete
09:34:54 44.637524 39.186576 5 115 0 0 43 1 delete
09:34:44 44.637524 39.186577 6 115 0 0 43 1 delete
09:34:33 44.637525 39.186578 5 115 0 0 43 1 delete
09:34:23 44.637536 39.186573 6 115 0 0 43 1 delete
09:34:16 44.637577 39.186572 6 114 0 0 43 1 delete
09:34:13 44.637604 39.186577 5 114 0.25 223.60000610352 43 1 delete
09:34:03 44.637674 39.186585 4 115 0 0 43 1 delete
09:34:00 44.637682 39.186586 5 113 0 0 43 1 delete
09:33:52 44.637709 39.186602 8 115 0 0 43 1 delete
09:33:42 44.637716 39.186611 5 114 0 0 43 1 delete
09:33:32 44.637767 39.186648 3 117 0 0 43 1 delete
09:33:22 44.637787 39.186647 9 117 0 0 43 1 delete
09:33:11 44.637769 39.186648 9 115 0.40000000596046 162.19999694824 43 1 delete
09:33:05 44.637767 39.186629 9 114 0 0 43 1 delete
09:33:01 44.637769 39.186612 4 113 0 0 43 1 delete
09:32:51 44.637776 39.186595 5 110 0 0 43 1 delete
09:32:40 44.637775 39.186594 5 110 0 0 43 1 delete
09:32:30 44.637775 39.186594 8 110 0 0 43 1 delete
09:32:20 44.637775 39.186593 4 110 0 0 43 1 delete
09:32:10 44.637775 39.186593 5 110 0 0 43 1 delete
09:31:59 44.637775 39.186559 4 110 0 0 43 1 delete
09:31:49 44.637757 39.186507 5 109 0 0 43 1 delete
09:31:47 44.637772 39.186499 5 108 0.51999998092651 40.799999237061 43 1 delete
09:31:39 44.637743 39.186429 7 107 0 0 43 1 delete